createdAt,value
2022-09-05T00:01:27.688Z,87.30
2022-09-05T00:03:53.341Z,86.60
2022-09-05T00:06:12.327Z,87.60
2022-09-05T00:08:37.062Z,87.70
2022-09-05T00:11:39.504Z,87.80
2022-09-05T00:14:13.840Z,87.10
2022-09-05T00:16:53.437Z,87.90
2022-09-05T00:24:21.319Z,87.60
2022-09-05T00:24:30.780Z,86.90
2022-09-05T00:24:50.148Z,87.80
2022-09-05T00:27:09.424Z,86.60
2022-09-05T00:30:40.659Z,86.90
2022-09-05T00:32:04.698Z,87.60
2022-09-05T00:34:36.227Z,87.40
2022-09-05T00:36:56.406Z,87.80
2022-09-05T00:39:03.145Z,87.40
2022-09-05T00:41:12.833Z,88.30
2022-09-05T00:43:45.027Z,88.50
2022-09-05T00:45:58.635Z,89.10
2022-09-05T00:48:28.813Z,89.30
2022-09-05T00:50:42.294Z,88.80
2022-09-05T00:53:12.580Z,89.20
2022-09-05T00:55:51.005Z,89.10
2022-09-05T00:58:28.057Z,89.70
2022-09-05T01:00:55.288Z,90.20
2022-09-05T01:03:31.763Z,90.00
2022-09-05T01:05:39.185Z,90.20
2022-09-05T01:08:08.997Z,88.70
2022-09-05T01:10:35.206Z,89.60
2022-09-05T01:13:05.469Z,88.80
2022-09-05T01:15:22.490Z,87.90
2022-09-05T01:17:50.433Z,88.70
2022-09-05T01:20:29.874Z,89.80
2022-09-05T01:22:40.595Z,88.80
2022-09-05T01:25:19.984Z,88.10
2022-09-05T01:28:47.610Z,88.70
2022-09-05T01:30:15.473Z,87.80
2022-09-05T01:33:05.836Z,86.70
2022-09-05T01:35:26.309Z,88.00
2022-09-05T01:37:47.930Z,86.40
2022-09-05T01:40:12.243Z,87.00
2022-09-05T01:42:37.026Z,86.00
2022-09-05T01:44:47.369Z,86.30
2022-09-05T01:46:58.115Z,85.90
2022-09-05T01:49:12.934Z,86.30
2022-09-05T01:51:31.463Z,86.80
2022-09-05T01:53:48.394Z,86.50
2022-09-05T01:56:18.992Z,86.80
2022-09-05T01:58:37.710Z,88.00
2022-09-05T02:01:25.403Z,87.60
2022-09-05T02:03:53.748Z,87.30
2022-09-05T02:05:56.016Z,87.40
2022-09-05T02:08:06.519Z,87.10
2022-09-05T02:10:11.174Z,87.30
2022-09-05T02:12:15.787Z,88.10
2022-09-05T02:14:34.186Z,87.80
2022-09-05T02:16:43.709Z,88.80
2022-09-05T02:19:07.110Z,88.40
2022-09-05T02:21:23.528Z,88.70
2022-09-05T02:23:41.786Z,89.00
2022-09-05T02:26:03.557Z,88.60
2022-09-05T02:28:14.031Z,89.30
2022-09-05T02:30:31.023Z,89.20
2022-09-05T02:32:36.470Z,90.00
2022-09-05T02:34:54.007Z,89.10
2022-09-05T02:37:17.072Z,89.50
2022-09-05T02:45:02.533Z,90.00
2022-09-05T02:45:14.074Z,90.20
2022-09-05T02:45:25.727Z,90.10
2022-09-05T02:47:40.874Z,89.70
2022-09-05T02:52:36.687Z,90.00
2022-09-05T02:57:27.556Z,89.90
2022-09-05T02:57:33.713Z,90.20
2022-09-05T02:57:41.754Z,90.00
2022-09-05T02:59:36.009Z,90.30
2022-09-05T03:02:02.112Z,91.00
2022-09-05T03:04:27.702Z,90.60
2022-09-05T03:07:02.162Z,90.50
2022-09-05T03:09:17.695Z,90.80
2022-09-05T03:11:45.064Z,90.60
2022-09-05T03:14:09.609Z,91.40
2022-09-05T03:16:36.465Z,91.50
2022-09-05T03:19:00.937Z,91.30
2022-09-05T03:21:21.402Z,91.50
2022-09-05T03:23:33.304Z,91.20
2022-09-05T03:25:47.890Z,91.50
2022-09-05T03:28:23.208Z,91.50
2022-09-05T03:30:33.506Z,91.90
2022-09-05T03:33:00.559Z,92.10
2022-09-05T03:35:17.406Z,91.30
2022-09-05T03:37:53.497Z,91.80
2022-09-05T03:40:16.806Z,92.10
2022-09-05T03:42:53.643Z,92.10
2022-09-05T03:45:46.759Z,92.00
2022-09-05T03:48:01.682Z,92.20
2022-09-05T03:55:59.942Z,91.80
2022-09-05T03:57:19.610Z,91.80
2022-09-05T03:57:27.283Z,92.00
2022-09-05T03:59:22.217Z,92.00
2022-09-05T04:02:45.043Z,92.70
2022-09-05T04:08:06.279Z,92.20
2022-09-05T04:08:20.894Z,92.20
2022-09-05T04:09:13.680Z,92.50
2022-09-05T04:11:15.610Z,92.00
2022-09-05T04:13:31.493Z,92.10
2022-09-05T04:15:40.106Z,92.30
2022-09-05T04:17:49.258Z,92.20
2022-09-05T04:20:01.105Z,92.20
2022-09-05T04:22:15.055Z,92.10
2022-09-05T04:24:32.144Z,92.20
2022-09-05T04:26:55.300Z,91.90
2022-09-05T04:29:19.885Z,92.70
2022-09-05T04:31:31.026Z,92.60
2022-09-05T04:34:05.329Z,92.10
2022-09-05T04:36:18.300Z,92.90
2022-09-05T04:38:42.272Z,92.50
2022-09-05T04:41:00.368Z,93.50
2022-09-05T04:43:27.709Z,93.30
2022-09-05T04:45:38.519Z,94.30
2022-09-05T04:47:46.719Z,93.40
2022-09-05T04:49:57.967Z,93.50
2022-09-05T04:52:39.580Z,93.60
2022-09-05T04:54:50.190Z,93.90
2022-09-05T04:56:59.961Z,93.90
2022-09-05T05:03:06.953Z,93.80
2022-09-05T05:06:14.661Z,94.00
2022-09-05T05:06:19.737Z,93.70
2022-09-05T05:07:07.899Z,93.90
2022-09-05T05:09:27.403Z,94.10
2022-09-05T05:17:23.875Z,94.50
2022-09-05T05:18:11.989Z,94.50
2022-09-05T05:18:15.468Z,94.40
2022-09-05T05:19:39.684Z,94.50
2022-09-05T05:21:48.505Z,94.30
2022-09-05T05:24:08.094Z,94.60
2022-09-05T05:26:20.176Z,94.70
2022-09-05T05:28:27.968Z,94.20
2022-09-05T05:30:32.977Z,94.10
2022-09-05T05:32:49.214Z,94.10
2022-09-05T05:35:14.027Z,94.10
2022-09-05T05:37:35.658Z,94.10
2022-09-05T05:39:45.929Z,94.50
2022-09-05T05:41:53.049Z,93.70
2022-09-05T05:43:55.205Z,93.60
2022-09-05T05:46:01.623Z,93.70
2022-09-05T05:48:28.340Z,94.00
2022-09-05T05:50:42.292Z,94.40
2022-09-05T05:53:03.038Z,94.20
2022-09-05T05:55:50.543Z,93.70
2022-09-05T05:57:47.570Z,94.30
2022-09-05T06:00:21.730Z,93.70
2022-09-05T06:03:25.078Z,94.30
2022-09-05T06:05:46.579Z,94.60
2022-09-05T06:09:30.410Z,93.80
2022-09-05T06:14:50.624Z,94.10
2022-09-05T06:14:57.361Z,93.10
2022-09-05T06:16:44.856Z,93.60
2022-09-05T06:19:14.846Z,92.80
2022-09-05T06:22:08.689Z,92.70
2022-09-05T06:23:54.001Z,92.50
2022-09-05T06:26:33.380Z,92.30
2022-09-05T06:28:54.279Z,92.30
2022-09-05T06:31:30.514Z,91.90
2022-09-05T06:33:38.992Z,91.90
2022-09-05T06:35:50.773Z,91.40
2022-09-05T06:38:26.934Z,91.40
2022-09-05T06:41:21.288Z,91.20
2022-09-05T06:43:47.490Z,91.40
2022-09-05T06:46:01.485Z,90.70
2022-09-05T06:48:23.874Z,90.50
2022-09-05T06:51:07.858Z,90.30
2022-09-05T06:53:48.136Z,90.20
2022-09-05T06:55:58.990Z,90.00
2022-09-05T06:58:21.964Z,89.40
2022-09-05T07:00:44.817Z,89.30
2022-09-05T07:03:08.057Z,88.60
2022-09-05T07:05:39.728Z,87.70
2022-09-05T07:08:35.362Z,87.00
2022-09-05T07:10:41.250Z,86.80
2022-09-05T07:13:09.236Z,86.40
2022-09-05T07:15:26.391Z,86.50
2022-09-05T07:18:10.463Z,85.70
2022-09-05T07:20:22.638Z,85.50
2022-09-05T07:22:48.073Z,85.40
2022-09-05T07:24:55.669Z,85.20
2022-09-05T07:27:00.133Z,85.10
2022-09-05T07:29:04.496Z,84.80
2022-09-05T07:31:10.454Z,84.40
2022-09-05T07:33:19.231Z,84.30
2022-09-05T07:35:29.366Z,83.60
2022-09-05T07:37:41.976Z,83.40
2022-09-05T07:40:25.470Z,82.90
2022-09-05T07:42:36.518Z,83.00
2022-09-05T07:44:44.201Z,81.90
2022-09-05T07:46:49.360Z,81.80
2022-09-05T07:48:56.246Z,81.80
2022-09-05T07:54:39.412Z,80.80
2022-09-05T07:56:54.646Z,80.40
2022-09-05T07:56:54.863Z,80.60
2022-09-05T07:58:23.928Z,79.90
2022-09-05T08:00:29.407Z,80.00
2022-09-05T08:02:32.260Z,80.00
2022-09-05T08:04:39.399Z,79.40
2022-09-05T08:07:45.965Z,78.80
2022-09-05T08:10:05.181Z,77.90
2022-09-05T08:11:36.757Z,77.70
2022-09-05T08:13:46.629Z,77.90
2022-09-05T08:16:09.755Z,77.80
2022-09-05T08:18:19.068Z,77.30
2022-09-05T08:20:32.804Z,77.00
2022-09-05T08:22:52.448Z,76.10
2022-09-05T08:25:15.203Z,76.10
2022-09-05T08:27:34.219Z,76.80
2022-09-05T08:29:42.874Z,75.10
2022-09-05T08:31:52.694Z,75.10
2022-09-05T08:34:00.362Z,75.50
2022-09-05T08:36:22.162Z,75.70
2022-09-05T08:38:25.965Z,75.30
2022-09-05T08:40:46.999Z,74.80
2022-09-05T08:43:56.000Z,75.00
2022-09-05T08:46:47.587Z,75.00
2022-09-05T08:48:38.517Z,75.70
2022-09-05T08:50:53.143Z,74.80
2022-09-05T08:53:29.084Z,75.20
2022-09-05T08:55:54.577Z,74.00
2022-09-05T08:58:23.056Z,73.70
2022-09-05T09:00:31.436Z,74.30
2022-09-05T09:03:04.303Z,73.80
2022-09-05T09:05:21.431Z,73.10
2022-09-05T09:07:47.671Z,73.20
2022-09-05T09:10:25.361Z,73.00
2022-09-05T09:12:53.187Z,71.20
2022-09-05T09:14:58.980Z,70.50
2022-09-05T09:17:09.567Z,69.50
2022-09-05T09:19:20.284Z,68.80
2022-09-05T09:21:42.563Z,69.40
2022-09-05T09:23:53.232Z,68.80
2022-09-05T09:26:15.912Z,68.30
2022-09-05T09:28:50.590Z,67.50
2022-09-05T09:31:29.039Z,66.30
2022-09-05T09:33:43.855Z,66.50
2022-09-05T09:36:07.841Z,65.60
2022-09-05T09:38:46.861Z,65.00
2022-09-05T09:41:23.237Z,60.40
2022-09-05T09:43:52.588Z,63.40
2022-09-05T09:46:24.247Z,63.20
2022-09-05T09:48:44.814Z,63.00
2022-09-05T09:51:15.170Z,62.60
2022-09-05T09:53:40.536Z,61.40
2022-09-05T09:56:15.449Z,61.00
2022-09-05T09:58:32.542Z,61.10
2022-09-05T10:01:20.046Z,60.90
2022-09-05T10:09:32.708Z,58.50
2022-09-05T10:10:50.597Z,58.20
2022-09-05T10:11:09.532Z,59.90
2022-09-05T10:11:55.605Z,58.10
2022-09-05T10:14:36.746Z,56.40
2022-09-05T10:17:01.214Z,57.20
2022-09-05T10:20:12.646Z,55.40
2022-09-05T10:22:48.164Z,55.00
2022-09-05T10:25:43.531Z,54.90
2022-09-05T10:27:52.947Z,54.60
2022-09-05T10:30:15.162Z,55.70
2022-09-05T10:35:07.967Z,55.20
2022-09-05T10:35:21.122Z,53.30
2022-09-05T10:37:45.088Z,53.80
2022-09-05T10:39:52.628Z,53.20
2022-09-05T10:42:03.244Z,53.00
2022-09-05T10:44:10.902Z,53.20
2022-09-05T10:48:54.449Z,51.20
2022-09-05T10:51:26.979Z,51.30
2022-09-05T10:53:53.298Z,50.70
2022-09-05T10:56:26.057Z,50.00
2022-09-05T11:00:10.915Z,48.80
2022-09-05T11:02:24.704Z,49.80
2022-09-05T11:03:52.528Z,49.80
2022-09-05T11:05:58.873Z,49.60
2022-09-05T11:08:28.908Z,50.00
2022-09-05T11:10:41.271Z,50.70
2022-09-05T11:12:57.671Z,50.50
2022-09-05T11:15:03.880Z,50.20
2022-09-05T11:17:24.407Z,49.80
2022-09-05T11:19:41.564Z,48.10
2022-09-05T11:22:12.092Z,48.10
2022-09-05T11:24:49.206Z,48.20
2022-09-05T11:27:24.451Z,48.20
2022-09-05T11:29:43.494Z,48.00
2022-09-05T11:36:06.845Z,46.90
2022-09-05T11:39:52.945Z,46.60
2022-09-05T11:40:08.379Z,47.30
2022-09-05T11:40:35.141Z,47.30
2022-09-05T11:43:07.516Z,47.20
2022-09-05T11:45:48.349Z,46.00
2022-09-05T11:47:54.379Z,46.20
2022-09-05T11:50:32.883Z,46.20
2022-09-05T11:52:53.764Z,46.50
2022-09-05T11:55:08.794Z,45.60
2022-09-05T11:57:47.998Z,45.20
2022-09-05T12:00:28.168Z,45.60
2022-09-05T12:02:54.047Z,45.50
2022-09-05T12:05:47.367Z,45.10
2022-09-05T12:07:43.154Z,45.00
2022-09-05T12:09:57.274Z,45.00
2022-09-05T12:12:06.337Z,44.60
2022-09-05T12:14:54.072Z,44.10
2022-09-05T12:17:16.966Z,44.60
2022-09-05T12:19:27.039Z,43.50
2022-09-05T12:21:35.647Z,43.50
2022-09-05T12:25:15.953Z,43.40
2022-09-05T12:27:42.930Z,43.20
2022-09-05T12:29:33.432Z,43.90
2022-09-05T12:34:46.750Z,43.10
2022-09-05T12:36:12.859Z,43.20
2022-09-05T12:40:57.037Z,42.90
2022-09-05T12:40:57.405Z,42.50
2022-09-05T12:42:37.233Z,43.00
2022-09-05T12:45:23.146Z,43.00
2022-09-05T12:47:31.370Z,42.00
2022-09-05T12:49:40.221Z,42.60
2022-09-05T12:52:23.638Z,42.90
2022-09-05T12:54:40.306Z,43.00
2022-09-05T12:58:27.111Z,42.40
2022-09-05T13:02:57.257Z,42.00
2022-09-05T13:03:04.851Z,41.70
2022-09-05T13:04:30.186Z,42.30
2022-09-05T13:06:46.060Z,42.00
2022-09-05T13:08:59.176Z,42.70
2022-09-05T13:14:49.687Z,42.30
2022-09-05T13:14:56.951Z,43.20
2022-09-05T13:15:54.821Z,43.60
2022-09-05T13:18:15.992Z,42.50
2022-09-05T13:20:34.372Z,41.80
2022-09-05T13:22:38.670Z,42.80
2022-09-05T13:25:07.570Z,42.50
2022-09-05T13:27:16.696Z,42.50
2022-09-05T13:29:21.828Z,42.50
2022-09-05T13:37:30.588Z,42.50
2022-09-05T13:37:59.418Z,42.80
2022-09-05T13:38:30.808Z,44.00
2022-09-05T13:39:07.749Z,42.20
2022-09-05T13:41:27.620Z,41.00
2022-09-05T13:43:38.368Z,41.30
2022-09-05T13:46:03.607Z,41.10
2022-09-05T13:51:29.819Z,39.40
2022-09-05T13:53:36.976Z,41.20
2022-09-05T13:55:54.815Z,41.40
2022-09-05T13:58:24.240Z,42.50
2022-09-05T14:00:43.436Z,41.50
2022-09-05T14:05:42.594Z,40.20
2022-09-05T14:08:18.891Z,40.20
2022-09-05T14:10:36.328Z,40.90
2022-09-05T14:12:48.710Z,41.60
2022-09-05T14:15:15.950Z,39.70
2022-09-05T14:20:04.118Z,40.00
2022-09-05T14:22:09.810Z,40.30
2022-09-05T14:24:28.214Z,40.60
2022-09-05T14:26:40.548Z,40.80
2022-09-05T14:29:01.284Z,41.10
2022-09-05T14:35:29.306Z,40.80
2022-09-05T14:37:46.276Z,41.40
2022-09-05T14:37:51.501Z,42.60
2022-09-05T14:39:04.043Z,41.50
2022-09-05T14:41:35.169Z,42.00
2022-09-05T14:44:07.841Z,40.70
2022-09-05T14:46:31.909Z,40.90
2022-09-05T14:49:11.186Z,41.70
2022-09-05T14:51:25.400Z,42.20
2022-09-05T14:56:24.465Z,42.50
2022-09-05T15:02:45.617Z,42.20
2022-09-05T15:02:51.987Z,42.00
2022-09-05T15:03:20.388Z,42.20
2022-09-05T15:05:28.719Z,42.20
2022-09-05T15:07:40.114Z,42.30
2022-09-05T15:12:18.208Z,42.60
2022-09-05T15:12:34.038Z,42.40
2022-09-05T15:14:50.495Z,41.90
2022-09-05T15:17:03.614Z,42.70
2022-09-05T15:19:08.750Z,42.30
2022-09-05T15:21:33.346Z,42.40
2022-09-05T15:23:38.377Z,42.30
2022-09-05T15:25:59.438Z,42.70
2022-09-05T15:28:08.252Z,42.60
2022-09-05T15:30:35.071Z,43.40
2022-09-05T15:32:38.996Z,42.70
2022-09-05T15:34:40.915Z,43.00
2022-09-05T15:36:42.970Z,43.00
2022-09-05T15:38:54.837Z,43.20
2022-09-05T15:41:17.344Z,43.10
2022-09-05T15:43:24.565Z,42.70
2022-09-05T15:45:37.319Z,42.50
2022-09-05T15:47:45.511Z,42.50
2022-09-05T15:49:49.399Z,42.80
2022-09-05T15:51:56.863Z,42.80
2022-09-05T15:53:58.823Z,43.20
2022-09-05T15:56:18.868Z,43.20
2022-09-05T15:58:23.538Z,42.70
2022-09-05T16:00:51.428Z,43.10
2022-09-05T16:03:16.235Z,43.30
2022-09-05T16:10:34.909Z,44.00
2022-09-05T16:10:49.250Z,44.60
2022-09-05T16:10:50.658Z,44.60
2022-09-05T16:12:51.171Z,44.70
2022-09-05T16:17:40.454Z,44.90
2022-09-05T16:23:17.686Z,45.50
2022-09-05T16:23:27.592Z,45.30
2022-09-05T16:23:34.729Z,45.10
2022-09-05T16:25:31.613Z,45.50
2022-09-05T16:27:59.616Z,46.00
2022-09-05T16:30:03.198Z,46.50
2022-09-05T16:32:08.138Z,46.50
2022-09-05T16:34:22.924Z,47.50
2022-09-05T16:36:37.914Z,47.60
2022-09-05T16:39:09.279Z,48.30
2022-09-05T16:41:24.343Z,48.80
2022-09-05T16:43:34.825Z,49.40
2022-09-05T16:46:02.572Z,50.30
2022-09-05T16:48:12.090Z,50.80
2022-09-05T16:50:34.331Z,51.30
2022-09-05T16:52:53.912Z,51.30
2022-09-05T16:55:19.618Z,51.40
2022-09-05T16:57:36.105Z,51.60
2022-09-05T16:59:42.530Z,51.60
2022-09-05T17:02:25.788Z,51.90
2022-09-05T17:04:34.273Z,52.80
2022-09-05T17:06:51.486Z,52.70
2022-09-05T17:09:03.234Z,53.10
2022-09-05T17:11:29.887Z,52.80
2022-09-05T17:13:42.231Z,53.20
2022-09-05T17:15:51.626Z,53.60
2022-09-05T17:18:22.343Z,53.90
2022-09-05T17:20:30.985Z,54.30
2022-09-05T17:28:58.373Z,54.50
2022-09-05T17:29:19.846Z,54.70
2022-09-05T17:29:24.587Z,55.60
2022-09-05T17:32:38.919Z,56.40
2022-09-05T17:35:17.043Z,57.30
2022-09-05T17:37:45.388Z,58.50
2022-09-05T17:40:26.633Z,60.10
2022-09-05T17:43:22.683Z,60.80
2022-09-05T17:45:46.583Z,61.90
2022-09-05T17:47:52.061Z,62.50
2022-09-05T17:50:14.915Z,62.60
2022-09-05T17:52:20.295Z,63.80
2022-09-05T17:54:29.143Z,63.70
2022-09-05T17:56:33.959Z,64.10
2022-09-05T17:58:49.409Z,64.50
2022-09-05T18:00:52.557Z,64.80
2022-09-05T18:02:56.857Z,65.20
2022-09-05T18:05:01.267Z,65.70
2022-09-05T18:07:26.162Z,66.40
2022-09-05T18:09:55.805Z,67.60
2022-09-05T18:13:13.317Z,68.50
2022-09-05T18:15:05.360Z,69.00
2022-09-05T18:17:47.595Z,68.70
2022-09-05T18:19:52.414Z,69.70
2022-09-05T18:22:28.011Z,69.40
2022-09-05T18:27:28.119Z,69.80
2022-09-05T18:29:58.358Z,70.00
2022-09-05T18:31:59.001Z,70.80
2022-09-05T18:34:13.513Z,71.10
2022-09-05T18:36:25.898Z,72.30
2022-09-05T18:38:50.079Z,72.40
2022-09-05T18:41:18.330Z,72.90
2022-09-05T18:44:14.056Z,73.90
2022-09-05T18:46:43.245Z,74.50
2022-09-05T18:50:21.592Z,75.10
2022-09-05T18:51:35.288Z,75.00
2022-09-05T18:53:37.791Z,75.60
2022-09-05T18:56:12.219Z,75.50
2022-09-05T18:58:27.006Z,77.00
2022-09-05T19:00:44.073Z,76.70
2022-09-05T19:03:02.449Z,76.70
2022-09-05T19:05:15.857Z,77.90
2022-09-05T19:07:26.760Z,77.70
2022-09-05T19:09:33.293Z,78.90
2022-09-05T19:11:53.655Z,78.20
2022-09-05T19:14:25.637Z,78.80
2022-09-05T19:16:42.554Z,79.20
2022-09-05T19:19:06.204Z,80.60
2022-09-05T19:21:22.276Z,81.70
2022-09-05T19:24:03.747Z,81.90
2022-09-05T19:26:09.794Z,82.00
2022-09-05T19:36:44.536Z,81.90
2022-09-05T19:37:10.159Z,82.40
2022-09-05T19:37:12.706Z,82.50
2022-09-05T19:37:22.140Z,82.10
2022-09-05T19:38:12.832Z,81.90
2022-09-05T19:47:19.252Z,81.50
2022-09-05T19:47:35.045Z,81.40
2022-09-05T19:47:41.669Z,80.30
2022-09-05T19:48:07.654Z,79.50
2022-09-05T19:50:11.516Z,78.20
2022-09-05T19:52:17.227Z,77.70
2022-09-05T19:54:35.081Z,77.60
2022-09-05T19:56:43.264Z,78.00
2022-09-05T19:58:45.864Z,76.90
2022-09-05T20:01:01.065Z,76.60
2022-09-05T20:03:04.424Z,76.60
2022-09-05T20:05:08.189Z,76.50
2022-09-05T20:07:15.517Z,76.50
2022-09-05T20:09:20.423Z,76.40
2022-09-05T20:11:45.103Z,75.60
2022-09-05T20:13:47.930Z,75.40
2022-09-05T20:15:51.745Z,75.90
2022-09-05T20:17:54.538Z,74.90
2022-09-05T20:20:09.230Z,75.00
2022-09-05T20:22:48.112Z,75.00
2022-09-05T20:24:41.427Z,74.50
2022-09-05T20:26:45.895Z,74.40
2022-09-05T20:28:54.728Z,74.30
2022-09-05T20:31:01.996Z,74.40
2022-09-05T20:33:13.603Z,74.80
2022-09-05T20:39:27.930Z,74.70
2022-09-05T20:43:14.798Z,74.80
2022-09-05T20:43:31.552Z,76.00
2022-09-05T20:43:36.698Z,75.50
2022-09-05T20:45:01.165Z,77.00
2022-09-05T20:50:45.667Z,77.40
2022-09-05T20:54:04.644Z,77.70
2022-09-05T20:54:24.430Z,78.00
2022-09-05T20:54:41.315Z,77.70
2022-09-05T20:56:48.887Z,77.60
2022-09-05T20:58:59.117Z,77.30
2022-09-05T21:01:21.225Z,77.00
2022-09-05T21:03:29.849Z,76.80
2022-09-05T21:05:34.324Z,76.70
2022-09-05T21:07:38.903Z,76.40
2022-09-05T21:10:01.454Z,76.30
2022-09-05T21:12:09.193Z,76.60
2022-09-05T21:14:24.448Z,76.40
2022-09-05T21:16:32.346Z,76.50
2022-09-05T21:18:34.338Z,76.40
2022-09-05T21:20:38.608Z,76.10
2022-09-05T21:22:44.456Z,75.90
2022-09-05T21:24:47.351Z,76.40
2022-09-05T21:26:50.354Z,76.20
2022-09-05T21:29:09.084Z,75.90
2022-09-05T21:31:15.808Z,75.80
2022-09-05T21:33:21.760Z,75.50
2022-09-05T21:35:48.713Z,75.40
2022-09-05T21:37:52.793Z,75.50
2022-09-05T21:39:58.650Z,75.40
2022-09-05T21:42:05.060Z,74.90
2022-09-05T21:47:43.656Z,74.50
2022-09-05T21:47:45.066Z,74.60
2022-09-05T21:49:12.470Z,74.20
2022-09-05T21:51:15.030Z,73.90
2022-09-05T21:55:19.517Z,73.60
2022-09-05T21:59:24.052Z,72.60
2022-09-05T21:59:27.858Z,72.00
2022-09-05T22:00:34.230Z,71.50
2022-09-05T22:02:37.850Z,71.00
2022-09-05T22:04:41.154Z,70.50
2022-09-05T22:06:48.628Z,70.30
2022-09-05T22:09:12.648Z,70.60
2022-09-05T22:11:13.585Z,70.10
2022-09-05T22:13:15.796Z,69.90
2022-09-05T22:15:27.211Z,70.00
2022-09-05T22:17:30.682Z,69.80
2022-09-05T22:19:37.757Z,69.70
2022-09-05T22:21:40.656Z,69.60
2022-09-05T22:23:45.024Z,69.70
2022-09-05T22:25:47.000Z,69.70
2022-09-05T22:27:50.185Z,70.10
2022-09-05T22:29:52.926Z,70.30
2022-09-05T22:31:54.998Z,70.10
2022-09-05T22:33:58.389Z,70.30
2022-09-05T22:36:00.359Z,70.40
2022-09-05T22:38:10.560Z,70.60
2022-09-05T22:40:13.721Z,71.00
2022-09-05T22:42:15.743Z,71.60
2022-09-05T22:44:17.741Z,71.20
2022-09-05T22:46:19.834Z,71.30
2022-09-05T22:48:22.133Z,71.50
2022-09-05T22:50:24.893Z,71.30
2022-09-05T22:52:26.809Z,71.30
2022-09-05T22:54:28.796Z,71.00
2022-09-05T22:56:38.559Z,70.70
2022-09-05T22:58:44.867Z,71.00
2022-09-05T23:00:46.910Z,71.10
2022-09-05T23:02:52.404Z,71.40
2022-09-05T23:04:54.858Z,71.80
2022-09-05T23:07:00.854Z,72.30
2022-09-05T23:09:03.030Z,72.50
2022-09-05T23:11:09.675Z,72.90
2022-09-05T23:13:11.706Z,73.30
2022-09-05T23:15:13.852Z,73.70
2022-09-05T23:17:15.887Z,74.00
2022-09-05T23:19:17.863Z,74.00
2022-09-05T23:21:20.135Z,74.40
2022-09-05T23:23:22.425Z,74.60
2022-09-05T23:25:24.625Z,74.90
2022-09-05T23:27:26.595Z,75.30
2022-09-05T23:29:28.475Z,76.00
2022-09-05T23:31:30.545Z,76.90
2022-09-05T23:33:33.466Z,77.80
2022-09-05T23:35:38.099Z,78.80
2022-09-05T23:37:44.589Z,79.60
2022-09-05T23:39:46.684Z,80.80
2022-09-05T23:41:48.634Z,80.60
2022-09-05T23:43:50.587Z,81.60
2022-09-05T23:45:55.253Z,81.60
2022-09-05T23:47:58.653Z,82.60
2022-09-05T23:50:00.627Z,82.70
2022-09-05T23:52:02.741Z,82.70
2022-09-05T23:54:04.994Z,82.70
2022-09-05T23:56:08.513Z,83.30
2022-09-05T23:58:11.370Z,83.10
